Colo, Iowa
Current Conditions -  °F | °C
As of 7:53 PM on Saturday 20 Dec 2014 (Local Time) from KAMW Reporting Station
Haze Haze  
Wind Chill: 26°   Ceiling: 200
Heat Index: 33°   Visibility: 2.5mi
Dew Point: 32°   Wind: 8mph
Humidity: 96%   Direction: 150°SSE
Pressure: 30.12"   Gusts: NA
Location:  42.02°N, 93.32°W
Report Text: KAMW 210153Z AUTO 15007KT 2 1/2SM BR OVC002 01/00 A3012 RMK AO2 SLP208 T00060000
Loading
Personal Weather Stations






























Interactive Weather Map New forecast layout! Learn more

10-Day Weather Forecast

Advertisements
Track Severe Weather on mobile